sensor_id;sensor_type;location;lat;lon;timestamp;P1;durP1;ratioP1;P2;durP2;ratioP2
10303;SDS011;5197;48.152;8.590;2024-02-15T00:02:23;4.33;;;3.10;;
10303;SDS011;5197;48.152;8.590;2024-02-15T00:04:50;4.03;;;2.80;;
10303;SDS011;5197;48.152;8.590;2024-02-15T00:07:16;3.63;;;3.30;;
10303;SDS011;5197;48.152;8.590;2024-02-15T00:09:44;3.60;;;3.30;;
10303;SDS011;5197;48.152;8.590;2024-02-15T00:12:11;3.57;;;2.73;;
10303;SDS011;5197;48.152;8.590;2024-02-15T00:14:39;2.90;;;2.67;;
10303;SDS011;5197;48.152;8.590;2024-02-15T00:17:06;3.90;;;3.20;;
10303;SDS011;5197;48.152;8.590;2024-02-15T00:19:33;3.23;;;2.90;;
10303;SDS011;5197;48.152;8.590;2024-02-15T00:22:00;3.17;;;2.83;;
10303;SDS011;5197;48.152;8.590;2024-02-15T00:24:27;3.63;;;2.70;;
10303;SDS011;5197;48.152;8.590;2024-02-15T00:26:54;3.17;;;2.80;;
10303;SDS011;5197;48.152;8.590;2024-02-15T00:29:21;3.40;;;3.00;;
10303;SDS011;5197;48.152;8.590;2024-02-15T00:31:48;3.80;;;3.00;;
10303;SDS011;5197;48.152;8.590;2024-02-15T00:34:16;3.43;;;2.87;;
10303;SDS011;5197;48.152;8.590;2024-02-15T00:36:43;3.17;;;2.90;;
10303;SDS011;5197;48.152;8.590;2024-02-15T00:39:11;6.43;;;3.30;;
10303;SDS011;5197;48.152;8.590;2024-02-15T00:41:39;3.47;;;2.73;;
10303;SDS011;5197;48.152;8.590;2024-02-15T00:44:09;3.83;;;3.20;;
10303;SDS011;5197;48.152;8.590;2024-02-15T00:46:39;4.07;;;2.80;;
10303;SDS011;5197;48.152;8.590;2024-02-15T00:49:07;3.80;;;3.50;;
10303;SDS011;5197;48.152;8.590;2024-02-15T00:51:35;4.83;;;3.20;;
10303;SDS011;5197;48.152;8.590;2024-02-15T00:54:02;3.40;;;3.10;;
10303;SDS011;5197;48.152;8.590;2024-02-15T00:56:30;3.10;;;2.90;;
10303;SDS011;5197;48.152;8.590;2024-02-15T00:59:01;3.60;;;2.90;;
10303;SDS011;5197;48.152;8.590;2024-02-15T01:01:28;3.57;;;3.20;;
10303;SDS011;5197;48.152;8.590;2024-02-15T01:03:55;3.73;;;3.40;;
10303;SDS011;5197;48.152;8.590;2024-02-15T01:06:22;3.60;;;3.00;;
10303;SDS011;5197;48.152;8.590;2024-02-15T01:08:49;3.33;;;3.00;;
10303;SDS011;5197;48.152;8.590;2024-02-15T01:11:17;5.50;;;3.10;;
10303;SDS011;5197;48.152;8.590;2024-02-15T01:13:44;4.37;;;3.33;;
10303;SDS011;5197;48.152;8.590;2024-02-15T01:16:11;4.87;;;3.23;;
10303;SDS011;5197;48.152;8.590;2024-02-15T01:18:38;3.87;;;2.80;;
10303;SDS011;5197;48.152;8.590;2024-02-15T01:21:05;3.67;;;3.03;;
10303;SDS011;5197;48.152;8.590;2024-02-15T01:23:33;3.90;;;3.00;;
10303;SDS011;5197;48.152;8.590;2024-02-15T01:26:03;3.93;;;3.20;;
10303;SDS011;5197;48.152;8.590;2024-02-15T01:28:31;4.77;;;2.90;;
10303;SDS011;5197;48.152;8.590;2024-02-15T01:30:59;3.30;;;2.90;;
10303;SDS011;5197;48.152;8.590;2024-02-15T01:33:26;5.30;;;3.03;;
10303;SDS011;5197;48.152;8.590;2024-02-15T01:35:54;3.50;;;3.07;;
10303;SDS011;5197;48.152;8.590;2024-02-15T01:38:21;4.00;;;2.77;;
10303;SDS011;5197;48.152;8.590;2024-02-15T01:40:48;3.60;;;2.70;;
10303;SDS011;5197;48.152;8.590;2024-02-15T01:43:15;4.67;;;2.90;;
10303;SDS011;5197;48.152;8.590;2024-02-15T01:45:42;3.63;;;3.00;;
10303;SDS011;5197;48.152;8.590;2024-02-15T01:48:09;3.93;;;3.03;;
10303;SDS011;5197;48.152;8.590;2024-02-15T01:50:37;5.77;;;3.50;;
10303;SDS011;5197;48.152;8.590;2024-02-15T01:53:05;3.40;;;3.10;;
10303;SDS011;5197;48.152;8.590;2024-02-15T01:55:37;4.03;;;3.60;;
10303;SDS011;5197;48.152;8.590;2024-02-15T01:58:04;4.40;;;4.00;;
10303;SDS011;5197;48.152;8.590;2024-02-15T02:00:31;4.70;;;4.17;;
10303;SDS011;5197;48.152;8.590;2024-02-15T02:02:58;4.47;;;3.60;;
10303;SDS011;5197;48.152;8.590;2024-02-15T02:05:29;5.07;;;4.67;;
10303;SDS011;5197;48.152;8.590;2024-02-15T02:07:58;14.20;;;8.93;;
10303;SDS011;5197;48.152;8.590;2024-02-15T02:10:28;16.77;;;12.23;;
10303;SDS011;5197;48.152;8.590;2024-02-15T02:13:02;19.47;;;15.10;;
10303;SDS011;5197;48.152;8.590;2024-02-15T02:15:31;22.33;;;15.53;;
10303;SDS011;5197;48.152;8.590;2024-02-15T02:17:58;21.23;;;15.97;;
10303;SDS011;5197;48.152;8.590;2024-02-15T02:20:27;18.20;;;14.63;;
10303;SDS011;5197;48.152;8.590;2024-02-15T02:22:54;11.93;;;8.87;;
10303;SDS011;5197;48.152;8.590;2024-02-15T02:25:34;7.73;;;6.53;;
10303;SDS011;5197;48.152;8.590;2024-02-15T02:28:01;7.30;;;6.53;;
10303;SDS011;5197;48.152;8.590;2024-02-15T02:30:28;12.63;;;8.20;;
10303;SDS011;5197;48.152;8.590;2024-02-15T02:32:56;10.37;;;8.00;;
10303;SDS011;5197;48.152;8.590;2024-02-15T02:35:23;9.17;;;7.93;;
10303;SDS011;5197;48.152;8.590;2024-02-15T02:37:56;9.87;;;8.80;;
10303;SDS011;5197;48.152;8.590;2024-02-15T02:40:24;9.60;;;8.60;;
10303;SDS011;5197;48.152;8.590;2024-02-15T02:42:51;12.60;;;8.00;;
10303;SDS011;5197;48.152;8.590;2024-02-15T02:45:28;11.67;;;9.13;;
10303;SDS011;5197;48.152;8.590;2024-02-15T02:47:54;13.63;;;8.10;;
10303;SDS011;5197;48.152;8.590;2024-02-15T02:50:22;11.60;;;7.83;;
10303;SDS011;5197;48.152;8.590;2024-02-15T02:52:49;9.07;;;7.20;;
10303;SDS011;5197;48.152;8.590;2024-02-15T02:55:17;8.33;;;6.23;;
10303;SDS011;5197;48.152;8.590;2024-02-15T02:57:44;6.93;;;5.13;;
10303;SDS011;5197;48.152;8.590;2024-02-15T03:00:12;6.30;;;5.17;;
10303;SDS011;5197;48.152;8.590;2024-02-15T03:02:42;8.27;;;4.90;;
10303;SDS011;5197;48.152;8.590;2024-02-15T03:05:10;6.33;;;5.30;;
10303;SDS011;5197;48.152;8.590;2024-02-15T03:07:40;7.83;;;5.83;;
10303;SDS011;5197;48.152;8.590;2024-02-15T03:10:07;5.63;;;5.13;;
10303;SDS011;5197;48.152;8.590;2024-02-15T03:12:36;7.33;;;5.33;;
10303;SDS011;5197;48.152;8.590;2024-02-15T03:15:04;7.53;;;5.67;;
10303;SDS011;5197;48.152;8.590;2024-02-15T03:17:42;7.07;;;5.70;;
10303;SDS011;5197;48.152;8.590;2024-02-15T03:20:10;9.40;;;5.87;;
10303;SDS011;5197;48.152;8.590;2024-02-15T03:22:53;6.07;;;5.40;;
10303;SDS011;5197;48.152;8.590;2024-02-15T03:25:21;6.03;;;5.43;;
10303;SDS011;5197;48.152;8.590;2024-02-15T03:27:52;7.00;;;5.87;;
10303;SDS011;5197;48.152;8.590;2024-02-15T03:30:20;9.13;;;5.73;;
10303;SDS011;5197;48.152;8.590;2024-02-15T03:32:48;8.53;;;5.87;;
10303;SDS011;5197;48.152;8.590;2024-02-15T03:35:18;7.70;;;5.83;;
10303;SDS011;5197;48.152;8.590;2024-02-15T03:37:45;6.77;;;5.73;;
10303;SDS011;5197;48.152;8.590;2024-02-15T03:40:12;7.20;;;5.87;;
10303;SDS011;5197;48.152;8.590;2024-02-15T03:42:40;8.73;;;6.10;;
10303;SDS011;5197;48.152;8.590;2024-02-15T03:45:08;5.47;;;4.90;;
10303;SDS011;5197;48.152;8.590;2024-02-15T03:47:35;9.10;;;5.67;;
10303;SDS011;5197;48.152;8.590;2024-02-15T03:50:03;9.30;;;5.80;;
10303;SDS011;5197;48.152;8.590;2024-02-15T03:52:37;7.03;;;5.60;;
10303;SDS011;5197;48.152;8.590;2024-02-15T03:55:05;7.50;;;5.63;;
10303;SDS011;5197;48.152;8.590;2024-02-15T03:57:34;9.30;;;5.70;;
10303;SDS011;5197;48.152;8.590;2024-02-15T04:00:05;7.10;;;5.57;;
10303;SDS011;5197;48.152;8.590;2024-02-15T04:02:34;8.93;;;5.47;;
10303;SDS011;5197;48.152;8.590;2024-02-15T04:05:02;7.47;;;6.10;;
10303;SDS011;5197;48.152;8.590;2024-02-15T04:07:31;11.50;;;5.50;;
10303;SDS011;5197;48.152;8.590;2024-02-15T04:09:58;8.27;;;5.93;;
10303;SDS011;5197;48.152;8.590;2024-02-15T04:12:27;10.43;;;6.50;;
10303;SDS011;5197;48.152;8.590;2024-02-15T04:14:54;6.50;;;5.80;;
10303;SDS011;5197;48.152;8.590;2024-02-15T04:17:25;11.43;;;7.07;;
10303;SDS011;5197;48.152;8.590;2024-02-15T04:19:52;9.57;;;5.57;;
10303;SDS011;5197;48.152;8.590;2024-02-15T04:22:20;9.13;;;5.90;;
10303;SDS011;5197;48.152;8.590;2024-02-15T04:24:47;9.27;;;6.20;;
10303;SDS011;5197;48.152;8.590;2024-02-15T04:27:14;10.50;;;6.53;;
10303;SDS011;5197;48.152;8.590;2024-02-15T04:29:41;9.30;;;7.20;;
10303;SDS011;5197;48.152;8.590;2024-02-15T04:32:10;8.30;;;6.67;;
10303;SDS011;5197;48.152;8.590;2024-02-15T04:34:39;8.70;;;7.13;;
10303;SDS011;5197;48.152;8.590;2024-02-15T04:37:06;8.63;;;6.87;;
10303;SDS011;5197;48.152;8.590;2024-02-15T04:39:33;12.03;;;7.43;;
10303;SDS011;5197;48.152;8.590;2024-02-15T04:42:02;10.27;;;7.17;;
10303;SDS011;5197;48.152;8.590;2024-02-15T04:44:31;12.70;;;7.23;;
10303;SDS011;5197;48.152;8.590;2024-02-15T04:47:01;9.30;;;7.30;;
10303;SDS011;5197;48.152;8.590;2024-02-15T04:49:30;7.93;;;6.67;;
10303;SDS011;5197;48.152;8.590;2024-02-15T04:51:58;10.47;;;6.83;;
10303;SDS011;5197;48.152;8.590;2024-02-15T04:54:28;11.20;;;7.00;;
10303;SDS011;5197;48.152;8.590;2024-02-15T04:56:55;7.23;;;6.40;;
10303;SDS011;5197;48.152;8.590;2024-02-15T04:59:23;11.53;;;6.30;;
10303;SDS011;5197;48.152;8.590;2024-02-15T05:01:52;8.70;;;6.20;;
10303;SDS011;5197;48.152;8.590;2024-02-15T05:04:20;7.43;;;6.53;;
10303;SDS011;5197;48.152;8.590;2024-02-15T05:06:47;14.97;;;6.70;;
10303;SDS011;5197;48.152;8.590;2024-02-15T05:09:14;9.97;;;7.40;;
10303;SDS011;5197;48.152;8.590;2024-02-15T05:11:44;14.70;;;7.60;;
10303;SDS011;5197;48.152;8.590;2024-02-15T05:14:15;12.33;;;8.80;;
10303;SDS011;5197;48.152;8.590;2024-02-15T05:16:46;12.10;;;8.53;;
10303;SDS011;5197;48.152;8.590;2024-02-15T05:19:17;9.50;;;8.40;;
10303;SDS011;5197;48.152;8.590;2024-02-15T05:21:45;11.37;;;8.20;;
10303;SDS011;5197;48.152;8.590;2024-02-15T05:24:13;8.53;;;7.63;;
10303;SDS011;5197;48.152;8.590;2024-02-15T05:26:41;10.07;;;7.57;;
10303;SDS011;5197;48.152;8.590;2024-02-15T05:29:13;10.90;;;8.40;;
10303;SDS011;5197;48.152;8.590;2024-02-15T05:31:40;10.90;;;8.03;;
10303;SDS011;5197;48.152;8.590;2024-02-15T05:34:07;9.63;;;7.60;;
10303;SDS011;5197;48.152;8.590;2024-02-15T05:36:38;13.03;;;7.97;;
10303;SDS011;5197;48.152;8.590;2024-02-15T05:39:05;11.37;;;8.57;;
10303;SDS011;5197;48.152;8.590;2024-02-15T05:41:32;17.47;;;10.20;;
10303;SDS011;5197;48.152;8.590;2024-02-15T05:43:59;12.47;;;9.70;;
10303;SDS011;5197;48.152;8.590;2024-02-15T05:46:26;13.80;;;9.10;;
10303;SDS011;5197;48.152;8.590;2024-02-15T05:48:54;16.73;;;9.73;;
10303;SDS011;5197;48.152;8.590;2024-02-15T05:51:22;11.70;;;8.87;;
10303;SDS011;5197;48.152;8.590;2024-02-15T05:53:49;12.00;;;9.50;;
10303;SDS011;5197;48.152;8.590;2024-02-15T05:56:16;13.33;;;9.93;;
10303;SDS011;5197;48.152;8.590;2024-02-15T05:58:43;18.40;;;11.97;;
10303;SDS011;5197;48.152;8.590;2024-02-15T06:01:10;16.87;;;12.97;;
10303;SDS011;5197;48.152;8.590;2024-02-15T06:03:39;17.37;;;12.97;;
10303;SDS011;5197;48.152;8.590;2024-02-15T06:06:08;16.60;;;11.67;;
10303;SDS011;5197;48.152;8.590;2024-02-15T06:08:35;16.17;;;11.23;;
10303;SDS011;5197;48.152;8.590;2024-02-15T06:11:03;14.70;;;9.63;;
10303;SDS011;5197;48.152;8.590;2024-02-15T06:13:35;20.87;;;11.27;;
10303;SDS011;5197;48.152;8.590;2024-02-15T06:16:02;18.57;;;10.63;;
10303;SDS011;5197;48.152;8.590;2024-02-15T06:18:35;19.50;;;11.37;;
10303;SDS011;5197;48.152;8.590;2024-02-15T06:21:04;15.57;;;9.63;;
10303;SDS011;5197;48.152;8.590;2024-02-15T06:23:32;15.13;;;10.47;;
10303;SDS011;5197;48.152;8.590;2024-02-15T06:26:00;18.37;;;11.80;;
10303;SDS011;5197;48.152;8.590;2024-02-15T06:28:30;39.83;;;14.37;;
10303;SDS011;5197;48.152;8.590;2024-02-15T06:31:15;21.23;;;12.63;;
10303;SDS011;5197;48.152;8.590;2024-02-15T06:34:00;23.57;;;12.63;;
10303;SDS011;5197;48.152;8.590;2024-02-15T06:36:47;20.30;;;12.57;;
10303;SDS011;5197;48.152;8.590;2024-02-15T06:39:37;16.73;;;11.53;;
10303;SDS011;5197;48.152;8.590;2024-02-15T06:42:07;20.73;;;12.90;;
10303;SDS011;5197;48.152;8.590;2024-02-15T06:44:36;18.10;;;12.40;;
10303;SDS011;5197;48.152;8.590;2024-02-15T06:47:07;18.37;;;11.73;;
10303;SDS011;5197;48.152;8.590;2024-02-15T06:49:40;18.87;;;11.30;;
10303;SDS011;5197;48.152;8.590;2024-02-15T06:52:07;18.87;;;11.33;;
10303;SDS011;5197;48.152;8.590;2024-02-15T06:54:35;18.63;;;11.83;;
10303;SDS011;5197;48.152;8.590;2024-02-15T06:57:02;19.60;;;12.83;;
10303;SDS011;5197;48.152;8.590;2024-02-15T06:59:31;21.93;;;13.57;;
10303;SDS011;5197;48.152;8.590;2024-02-15T07:01:59;24.30;;;14.10;;
10303;SDS011;5197;48.152;8.590;2024-02-15T07:04:26;24.23;;;14.87;;
10303;SDS011;5197;48.152;8.590;2024-02-15T07:06:54;19.77;;;13.67;;
10303;SDS011;5197;48.152;8.590;2024-02-15T07:09:21;16.30;;;12.20;;
10303;SDS011;5197;48.152;8.590;2024-02-15T07:11:50;19.53;;;13.30;;
10303;SDS011;5197;48.152;8.590;2024-02-15T07:14:19;19.93;;;13.70;;
10303;SDS011;5197;48.152;8.590;2024-02-15T07:16:47;19.53;;;12.77;;
10303;SDS011;5197;48.152;8.590;2024-02-15T07:19:15;18.50;;;12.13;;
10303;SDS011;5197;48.152;8.590;2024-02-15T07:21:43;16.30;;;11.60;;
10303;SDS011;5197;48.152;8.590;2024-02-15T07:24:10;14.63;;;11.60;;
10303;SDS011;5197;48.152;8.590;2024-02-15T07:26:37;11.80;;;9.73;;
10303;SDS011;5197;48.152;8.590;2024-02-15T07:29:04;10.70;;;9.50;;
10303;SDS011;5197;48.152;8.590;2024-02-15T07:31:37;16.67;;;9.70;;
10303;SDS011;5197;48.152;8.590;2024-02-15T07:34:05;17.13;;;9.47;;
10303;SDS011;5197;48.152;8.590;2024-02-15T07:36:32;11.10;;;8.33;;
10303;SDS011;5197;48.152;8.590;2024-02-15T07:38:59;10.07;;;8.43;;
10303;SDS011;5197;48.152;8.590;2024-02-15T07:41:30;13.60;;;8.87;;
10303;SDS011;5197;48.152;8.590;2024-02-15T07:44:00;10.20;;;8.63;;
10303;SDS011;5197;48.152;8.590;2024-02-15T07:46:27;10.90;;;7.30;;
10303;SDS011;5197;48.152;8.590;2024-02-15T07:48:55;7.23;;;6.53;;
10303;SDS011;5197;48.152;8.590;2024-02-15T07:51:23;7.50;;;6.20;;
10303;SDS011;5197;48.152;8.590;2024-02-15T07:53:51;7.20;;;6.50;;
10303;SDS011;5197;48.152;8.590;2024-02-15T07:56:19;9.07;;;6.53;;
10303;SDS011;5197;48.152;8.590;2024-02-15T07:58:47;7.33;;;5.77;;
10303;SDS011;5197;48.152;8.590;2024-02-15T08:01:19;5.80;;;5.20;;
10303;SDS011;5197;48.152;8.590;2024-02-15T08:03:51;8.23;;;5.27;;
10303;SDS011;5197;48.152;8.590;2024-02-15T08:06:21;5.40;;;4.90;;
10303;SDS011;5197;48.152;8.590;2024-02-15T08:08:52;6.03;;;5.50;;
10303;SDS011;5197;48.152;8.590;2024-02-15T08:11:19;7.40;;;5.47;;
10303;SDS011;5197;48.152;8.590;2024-02-15T08:13:47;6.00;;;5.40;;
10303;SDS011;5197;48.152;8.590;2024-02-15T08:16:16;8.37;;;5.60;;
10303;SDS011;5197;48.152;8.590;2024-02-15T08:18:45;5.70;;;5.10;;
10303;SDS011;5197;48.152;8.590;2024-02-15T08:21:13;5.40;;;5.00;;
10303;SDS011;5197;48.152;8.590;2024-02-15T08:23:41;5.93;;;4.83;;
10303;SDS011;5197;48.152;8.590;2024-02-15T08:26:09;9.53;;;6.00;;
10303;SDS011;5197;48.152;8.590;2024-02-15T08:28:40;8.03;;;5.90;;
10303;SDS011;5197;48.152;8.590;2024-02-15T08:31:06;8.83;;;6.53;;
10303;SDS011;5197;48.152;8.590;2024-02-15T08:33:35;7.50;;;5.80;;
10303;SDS011;5197;48.152;8.590;2024-02-15T08:36:05;6.37;;;5.53;;
10303;SDS011;5197;48.152;8.590;2024-02-15T08:38:33;7.60;;;5.80;;
10303;SDS011;5197;48.152;8.590;2024-02-15T08:41:00;5.47;;;4.87;;
10303;SDS011;5197;48.152;8.590;2024-02-15T08:43:27;5.30;;;4.20;;
10303;SDS011;5197;48.152;8.590;2024-02-15T08:45:54;4.80;;;4.30;;
10303;SDS011;5197;48.152;8.590;2024-02-15T08:48:21;6.37;;;5.20;;
10303;SDS011;5197;48.152;8.590;2024-02-15T08:50:49;5.77;;;4.40;;
10303;SDS011;5197;48.152;8.590;2024-02-15T08:53:16;7.70;;;4.90;;
10303;SDS011;5197;48.152;8.590;2024-02-15T08:55:45;6.40;;;3.80;;
10303;SDS011;5197;48.152;8.590;2024-02-15T08:58:12;4.37;;;3.97;;
10303;SDS011;5197;48.152;8.590;2024-02-15T09:00:39;6.97;;;4.03;;
10303;SDS011;5197;48.152;8.590;2024-02-15T09:03:11;4.33;;;3.90;;
10303;SDS011;5197;48.152;8.590;2024-02-15T09:05:41;4.53;;;3.90;;
10303;SDS011;5197;48.152;8.590;2024-02-15T09:08:08;6.00;;;4.10;;
10303;SDS011;5197;48.152;8.590;2024-02-15T09:10:35;4.23;;;3.87;;
10303;SDS011;5197;48.152;8.590;2024-02-15T09:13:05;4.30;;;3.90;;
10303;SDS011;5197;48.152;8.590;2024-02-15T09:15:33;4.03;;;3.73;;
10303;SDS011;5197;48.152;8.590;2024-02-15T09:18:00;4.30;;;3.83;;
10303;SDS011;5197;48.152;8.590;2024-02-15T09:20:27;5.33;;;3.80;;
10303;SDS011;5197;48.152;8.590;2024-02-15T09:22:55;5.10;;;4.10;;
10303;SDS011;5197;48.152;8.590;2024-02-15T09:25:23;5.60;;;4.23;;
10303;SDS011;5197;48.152;8.590;2024-02-15T09:27:50;7.03;;;3.90;;
10303;SDS011;5197;48.152;8.590;2024-02-15T09:30:18;4.27;;;3.87;;
10303;SDS011;5197;48.152;8.590;2024-02-15T09:32:45;4.37;;;3.97;;
10303;SDS011;5197;48.152;8.590;2024-02-15T09:35:12;5.33;;;4.20;;
10303;SDS011;5197;48.152;8.590;2024-02-15T09:37:47;6.43;;;3.97;;
10303;SDS011;5197;48.152;8.590;2024-02-15T09:40:19;4.53;;;4.10;;
10303;SDS011;5197;48.152;8.590;2024-02-15T09:42:46;5.00;;;3.57;;
10303;SDS011;5197;48.152;8.590;2024-02-15T09:45:14;4.87;;;4.27;;
10303;SDS011;5197;48.152;8.590;2024-02-15T09:47:43;4.30;;;3.90;;
10303;SDS011;5197;48.152;8.590;2024-02-15T09:50:11;7.03;;;3.47;;
10303;SDS011;5197;48.152;8.590;2024-02-15T09:52:47;4.40;;;3.80;;
10303;SDS011;5197;48.152;8.590;2024-02-15T09:55:18;4.23;;;3.77;;
10303;SDS011;5197;48.152;8.590;2024-02-15T09:57:50;4.47;;;3.90;;
10303;SDS011;5197;48.152;8.590;2024-02-15T10:00:17;5.33;;;4.43;;
10303;SDS011;5197;48.152;8.590;2024-02-15T10:02:50;9.17;;;3.93;;
10303;SDS011;5197;48.152;8.590;2024-02-15T10:05:19;4.57;;;4.00;;
10303;SDS011;5197;48.152;8.590;2024-02-15T10:07:47;4.63;;;4.23;;
10303;SDS011;5197;48.152;8.590;2024-02-15T10:10:15;4.60;;;4.17;;
10303;SDS011;5197;48.152;8.590;2024-02-15T10:12:44;6.33;;;3.90;;
10303;SDS011;5197;48.152;8.590;2024-02-15T10:15:26;9.77;;;4.30;;
10303;SDS011;5197;48.152;8.590;2024-02-15T10:18:00;5.57;;;3.83;;
10303;SDS011;5197;48.152;8.590;2024-02-15T10:20:28;5.50;;;4.13;;
10303;SDS011;5197;48.152;8.590;2024-02-15T10:25:28;3.63;;;3.33;;
10303;SDS011;5197;48.152;8.590;2024-02-15T10:28:02;4.03;;;3.50;;
10303;SDS011;5197;48.152;8.590;2024-02-15T10:30:37;4.00;;;3.60;;
10303;SDS011;5197;48.152;8.590;2024-02-15T10:33:06;6.30;;;3.80;;
10303;SDS011;5197;48.152;8.590;2024-02-15T10:35:36;4.27;;;3.87;;
10303;SDS011;5197;48.152;8.590;2024-02-15T10:38:07;4.00;;;3.67;;
10303;SDS011;5197;48.152;8.590;2024-02-15T10:40:40;3.90;;;3.40;;
10303;SDS011;5197;48.152;8.590;2024-02-15T10:43:09;5.30;;;3.77;;
10303;SDS011;5197;48.152;8.590;2024-02-15T10:45:40;3.53;;;3.20;;
10303;SDS011;5197;48.152;8.590;2024-02-15T10:48:08;3.77;;;3.43;;
10303;SDS011;5197;48.152;8.590;2024-02-15T10:50:39;4.60;;;3.37;;
10303;SDS011;5197;48.152;8.590;2024-02-15T10:53:18;5.03;;;3.40;;
10303;SDS011;5197;48.152;8.590;2024-02-15T10:55:57;4.50;;;3.33;;
10303;SDS011;5197;48.152;8.590;2024-02-15T10:58:47;3.00;;;2.80;;
10303;SDS011;5197;48.152;8.590;2024-02-15T11:01:17;4.23;;;3.17;;
10303;SDS011;5197;48.152;8.590;2024-02-15T11:03:48;3.70;;;2.97;;
10303;SDS011;5197;48.152;8.590;2024-02-15T11:06:23;3.33;;;2.70;;
10303;SDS011;5197;48.152;8.590;2024-02-15T11:08:53;3.43;;;3.13;;
10303;SDS011;5197;48.152;8.590;2024-02-15T11:11:22;5.37;;;2.93;;
10303;SDS011;5197;48.152;8.590;2024-02-15T11:13:49;3.40;;;3.07;;
10303;SDS011;5197;48.152;8.590;2024-02-15T11:19:08;3.10;;;2.90;;
10303;SDS011;5197;48.152;8.590;2024-02-15T11:21:55;3.63;;;3.33;;
10303;SDS011;5197;48.152;8.590;2024-02-15T11:24:30;5.97;;;2.70;;
10303;SDS011;5197;48.152;8.590;2024-02-15T11:27:03;4.80;;;2.73;;
10303;SDS011;5197;48.152;8.590;2024-02-15T11:29:47;2.40;;;2.27;;
10303;SDS011;5197;48.152;8.590;2024-02-15T11:35:23;2.40;;;2.20;;
10303;SDS011;5197;48.152;8.590;2024-02-15T11:37:54;2.60;;;2.27;;
10303;SDS011;5197;48.152;8.590;2024-02-15T11:40:24;2.23;;;2.03;;
10303;SDS011;5197;48.152;8.590;2024-02-15T11:42:56;2.67;;;2.30;;
10303;SDS011;5197;48.152;8.590;2024-02-15T11:45:27;3.93;;;3.40;;
10303;SDS011;5197;48.152;8.590;2024-02-15T11:48:00;2.90;;;2.00;;
10303;SDS011;5197;48.152;8.590;2024-02-15T11:50:28;2.20;;;2.00;;
10303;SDS011;5197;48.152;8.590;2024-02-15T11:53:04;4.30;;;2.23;;
10303;SDS011;5197;48.152;8.590;2024-02-15T11:55:32;3.20;;;1.90;;
10303;SDS011;5197;48.152;8.590;2024-02-15T11:58:00;2.13;;;1.93;;
10303;SDS011;5197;48.152;8.590;2024-02-15T12:00:31;1.90;;;1.80;;
10303;SDS011;5197;48.152;8.590;2024-02-15T12:03:21;2.40;;;2.20;;
10303;SDS011;5197;48.152;8.590;2024-02-15T12:06:22;2.53;;;1.80;;
10303;SDS011;5197;48.152;8.590;2024-02-15T12:09:17;3.93;;;2.00;;
10303;SDS011;5197;48.152;8.590;2024-02-15T12:12:04;3.10;;;1.70;;
10303;SDS011;5197;48.152;8.590;2024-02-15T12:14:50;2.30;;;1.83;;
10303;SDS011;5197;48.152;8.590;2024-02-15T12:17:46;3.50;;;1.73;;
10303;SDS011;5197;48.152;8.590;2024-02-15T12:20:32;2.60;;;1.80;;
10303;SDS011;5197;48.152;8.590;2024-02-15T12:23:00;1.70;;;1.60;;
10303;SDS011;5197;48.152;8.590;2024-02-15T12:25:27;4.93;;;1.93;;
10303;SDS011;5197;48.152;8.590;2024-02-15T12:27:55;1.87;;;1.73;;
10303;SDS011;5197;48.152;8.590;2024-02-15T12:30:25;1.80;;;1.70;;
10303;SDS011;5197;48.152;8.590;2024-02-15T12:33:09;3.40;;;1.53;;
10303;SDS011;5197;48.152;8.590;2024-02-15T12:35:38;1.60;;;1.50;;
10303;SDS011;5197;48.152;8.590;2024-02-15T12:38:05;2.83;;;1.60;;
10303;SDS011;5197;48.152;8.590;2024-02-15T12:40:32;2.10;;;1.40;;
10303;SDS011;5197;48.152;8.590;2024-02-15T12:43:07;1.57;;;1.47;;
10303;SDS011;5197;48.152;8.590;2024-02-15T12:45:35;3.40;;;1.60;;
10303;SDS011;5197;48.152;8.590;2024-02-15T12:48:04;1.33;;;1.23;;
10303;SDS011;5197;48.152;8.590;2024-02-15T12:50:32;2.30;;;1.80;;
10303;SDS011;5197;48.152;8.590;2024-02-15T12:53:00;1.60;;;1.50;;
10303;SDS011;5197;48.152;8.590;2024-02-15T12:55:33;3.07;;;1.30;;
10303;SDS011;5197;48.152;8.590;2024-02-15T12:58:02;2.30;;;1.27;;
10303;SDS011;5197;48.152;8.590;2024-02-15T13:00:40;1.30;;;1.20;;
10303;SDS011;5197;48.152;8.590;2024-02-15T13:03:08;1.80;;;1.20;;
10303;SDS011;5197;48.152;8.590;2024-02-15T13:05:42;1.90;;;1.47;;
10303;SDS011;5197;48.152;8.590;2024-02-15T13:08:10;1.30;;;1.20;;
10303;SDS011;5197;48.152;8.590;2024-02-15T13:10:41;4.10;;;1.40;;
10303;SDS011;5197;48.152;8.590;2024-02-15T13:13:08;1.53;;;1.00;;
10303;SDS011;5197;48.152;8.590;2024-02-15T13:15:36;1.30;;;1.20;;
10303;SDS011;5197;48.152;8.590;2024-02-15T13:18:03;1.07;;;1.00;;
10303;SDS011;5197;48.152;8.590;2024-02-15T13:20:32;0.97;;;0.97;;
10303;SDS011;5197;48.152;8.590;2024-02-15T13:23:01;3.60;;;0.97;;
10303;SDS011;5197;48.152;8.590;2024-02-15T13:25:35;1.10;;;1.00;;
10303;SDS011;5197;48.152;8.590;2024-02-15T13:28:03;1.20;;;1.10;;
10303;SDS011;5197;48.152;8.590;2024-02-15T13:30:31;1.10;;;1.00;;
10303;SDS011;5197;48.152;8.590;2024-02-15T13:32:58;1.00;;;1.00;;
10303;SDS011;5197;48.152;8.590;2024-02-15T13:35:28;2.53;;;0.97;;
10303;SDS011;5197;48.152;8.590;2024-02-15T13:37:55;4.27;;;1.00;;
10303;SDS011;5197;48.152;8.590;2024-02-15T13:40:25;1.20;;;1.10;;
10303;SDS011;5197;48.152;8.590;2024-02-15T13:42:54;2.23;;;1.10;;
10303;SDS011;5197;48.152;8.590;2024-02-15T13:45:29;1.40;;;1.30;;
10303;SDS011;5197;48.152;8.590;2024-02-15T13:48:01;3.80;;;1.20;;
10303;SDS011;5197;48.152;8.590;2024-02-15T13:50:28;1.40;;;1.30;;
10303;SDS011;5197;48.152;8.590;2024-02-15T13:52:56;0.80;;;0.80;;
10303;SDS011;5197;48.152;8.590;2024-02-15T13:55:26;1.87;;;1.10;;
10303;SDS011;5197;48.152;8.590;2024-02-15T13:57:54;2.30;;;0.93;;
10303;SDS011;5197;48.152;8.590;2024-02-15T14:00:23;1.33;;;1.13;;
10303;SDS011;5197;48.152;8.590;2024-02-15T14:03:01;1.73;;;1.07;;
10303;SDS011;5197;48.152;8.590;2024-02-15T14:05:31;2.20;;;1.17;;
10303;SDS011;5197;48.152;8.590;2024-02-15T14:07:59;1.27;;;1.17;;
10303;SDS011;5197;48.152;8.590;2024-02-15T14:10:30;1.63;;;1.20;;
10303;SDS011;5197;48.152;8.590;2024-02-15T14:13:00;0.77;;;0.77;;
10303;SDS011;5197;48.152;8.590;2024-02-15T14:15:32;1.47;;;1.37;;
10303;SDS011;5197;48.152;8.590;2024-02-15T14:18:05;2.07;;;1.97;;
10303;SDS011;5197;48.152;8.590;2024-02-15T14:20:34;2.67;;;1.37;;
10303;SDS011;5197;48.152;8.590;2024-02-15T14:23:02;1.13;;;1.00;;
10303;SDS011;5197;48.152;8.590;2024-02-15T14:25:32;0.90;;;0.90;;
10303;SDS011;5197;48.152;8.590;2024-02-15T14:28:00;2.13;;;1.50;;
10303;SDS011;5197;48.152;8.590;2024-02-15T14:30:27;1.07;;;1.07;;
10303;SDS011;5197;48.152;8.590;2024-02-15T14:33:12;2.13;;;1.03;;
10303;SDS011;5197;48.152;8.590;2024-02-15T14:35:45;1.40;;;1.00;;
10303;SDS011;5197;48.152;8.590;2024-02-15T14:38:13;5.50;;;1.10;;
10303;SDS011;5197;48.152;8.590;2024-02-15T14:40:42;1.30;;;0.77;;
10303;SDS011;5197;48.152;8.590;2024-02-15T14:43:17;0.90;;;0.90;;
10303;SDS011;5197;48.152;8.590;2024-02-15T14:45:47;1.20;;;1.10;;
10303;SDS011;5197;48.152;8.590;2024-02-15T14:48:15;1.03;;;1.03;;
10303;SDS011;5197;48.152;8.590;2024-02-15T14:50:44;2.90;;;1.00;;
10303;SDS011;5197;48.152;8.590;2024-02-15T14:53:13;1.70;;;0.80;;
10303;SDS011;5197;48.152;8.590;2024-02-15T14:55:42;1.00;;;1.00;;
10303;SDS011;5197;48.152;8.590;2024-02-15T14:58:12;2.73;;;0.90;;
10303;SDS011;5197;48.152;8.590;2024-02-15T15:00:41;2.63;;;1.37;;
10303;SDS011;5197;48.152;8.590;2024-02-15T15:03:10;0.73;;;0.73;;
10303;SDS011;5197;48.152;8.590;2024-02-15T15:05:41;1.53;;;1.13;;
10303;SDS011;5197;48.152;8.590;2024-02-15T15:08:27;1.87;;;1.00;;
10303;SDS011;5197;48.152;8.590;2024-02-15T15:11:14;3.97;;;1.27;;
10303;SDS011;5197;48.152;8.590;2024-02-15T15:14:00;2.67;;;1.10;;
10303;SDS011;5197;48.152;8.590;2024-02-15T15:16:28;1.60;;;1.50;;
10303;SDS011;5197;48.152;8.590;2024-02-15T15:18:57;1.30;;;1.20;;
10303;SDS011;5197;48.152;8.590;2024-02-15T15:21:24;1.47;;;1.37;;
10303;SDS011;5197;48.152;8.590;2024-02-15T15:23:54;1.50;;;1.30;;